Time;durP1;ratioP1;P1;durP2;ratioP2;P2;SDS_P1;SDS_P2;PMS_P1;PMS_P2;Temp;Humidity;BMP_temperature;BMP_pressure;BME280_temperature;BME280_humidity;BME280_pressure;Samples;Min_cycle;Max_cycle;Signal;HPM_P1;HPM_P2
2022/02/09 00:07:34;;;;;;;2.15;1.30;;;;;;;14.17;51.06;102410.22;5006325;28;20126;-84
2022/02/09 00:10:00;;;;;;;2.58;1.30;;;;;;;14.15;50.77;102401.25;5006897;28;20141;-84
2022/02/09 00:12:35;;;;;;;2.65;1.15;;;;;;;14.15;51.11;102392.19;5002260;28;20135;-83
2022/02/09 00:26:23;;;;;;;2.33;1.30;;;;;;;14.09;51.30;102399.75;5011348;28;20433;-84
2022/02/09 00:28:33;;;;;;;2.17;1.15;;;;;;;14.10;51.02;102395.16;5011391;28;20101;-84
2022/02/09 00:31:30;;;;;;;2.50;1.10;;;;;;;14.09;51.33;102391.53;5010048;28;20096;-84
2022/02/09 00:41:49;;;;;;;2.42;1.45;;;;;;;14.11;50.98;102377.81;5012379;28;20480;-84
2022/02/09 00:44:35;;;;;;;2.58;1.58;;;;;;;14.14;51.02;102374.03;5009807;28;20084;-84
2022/02/09 01:39:11;;;;;;;5.10;3.00;;;;;;;14.14;51.15;102364.00;5011372;28;20050;-85
2022/02/09 01:55:50;;;;;;;4.38;2.38;;;;;;;14.09;50.85;102355.16;5000566;28;20336;-84
2022/02/09 01:58:21;;;;;;;4.10;2.70;;;;;;;14.12;51.25;102348.66;5011668;28;20500;-84
2022/02/09 02:00:48;;;;;;;3.38;2.10;;;;;;;14.10;51.22;102344.16;5008699;28;20140;-84
2022/02/09 02:03:15;;;;;;;3.53;2.20;;;;;;;14.09;51.49;102336.91;5011106;28;20046;-85
2022/02/09 02:05:42;;;;;;;3.72;2.33;;;;;;;14.11;51.27;102328.66;5008561;28;20062;-85
2022/02/09 02:08:10;;;;;;;4.28;2.65;;;;;;;14.11;51.20;102325.91;4996257;28;20540;-84
2022/02/09 02:18:39;;;;;;;6.30;3.75;;;;;;;14.08;51.14;102329.69;5006950;28;20133;-85
2022/02/09 02:21:24;;;;;;;5.53;3.70;;;;;;;14.14;51.19;102327.59;5009157;28;20089;-84
2022/02/09 02:29:29;;;;;;;7.47;4.53;;;;;;;14.11;50.97;102309.53;5006514;28;20129;-83
2022/02/09 02:32:28;;;;;;;5.82;4.13;;;;;;;14.10;51.54;102310.50;5008946;28;20042;-84
2022/02/09 02:59:41;;;;;;;6.20;4.40;;;;;;;14.00;51.31;102310.16;4984292;28;20050;-85
2022/02/09 03:13:15;;;;;;;7.45;5.13;;;;;;;14.00;51.77;102295.63;4983606;28;20081;-84
2022/02/09 03:15:58;;;;;;;6.07;4.63;;;;;;;14.02;51.51;102301.88;4984854;28;20060;-85
2022/02/09 03:21:05;;;;;;;6.57;4.90;;;;;;;14.00;51.71;102301.94;4992803;28;20100;-85
2022/02/09 03:45:37;;;;;;;7.75;5.15;;;;;;;13.98;52.24;102295.72;5010969;28;20084;-88
2022/02/09 03:48:15;;;;;;;7.10;4.65;;;;;;;13.96;52.26;102292.19;5009725;28;20058;-88
2022/02/09 03:51:14;;;;;;;8.02;5.25;;;;;;;13.97;52.27;102288.50;5005469;28;20061;-87
2022/02/09 03:54:01;;;;;;;7.47;4.85;;;;;;;13.97;52.18;102287.63;5009415;28;20049;-86
2022/02/09 03:57:22;;;;;;;6.38;4.63;;;;;;;13.96;52.15;102286.72;5007116;28;20050;-87
2022/02/09 03:59:18;;;;;;;6.10;4.38;;;;;;;13.97;51.95;102283.03;5001114;28;20088;-87
2022/02/09 04:01:45;;;;;;;6.30;4.32;;;;;;;13.97;52.19;102282.16;5009361;28;20145;-87
2022/02/09 04:04:13;;;;;;;6.35;4.45;;;;;;;13.97;52.23;102285.75;5006696;28;20072;-86
2022/02/09 04:06:41;;;;;;;6.05;4.03;;;;;;;13.97;52.14;102277.56;5008719;28;20081;-87
2022/02/09 04:09:13;;;;;;;5.35;4.15;;;;;;;13.95;52.15;102276.78;5009053;28;20080;-85
2022/02/09 04:14:16;;;;;;;6.30;4.10;;;;;;;13.98;52.59;102270.25;5009026;28;20087;-86
2022/02/09 04:54:32;;;;;;;4.68;2.83;;;;;;;13.88;51.76;102249.91;5007776;28;20050;-85
2022/02/09 04:57:12;;;;;;;5.60;3.33;;;;;;;13.87;51.77;102248.16;5007223;28;20077;-85
2022/02/09 05:02:33;;;;;;;4.75;3.08;;;;;;;13.87;51.73;102243.56;5009177;28;20058;-86
2022/02/09 05:26:37;;;;;;;5.85;3.00;;;;;;;13.82;51.39;102242.09;5010699;28;20083;-85
2022/02/09 05:29:03;;;;;;;4.57;2.80;;;;;;;13.81;51.35;102232.16;5016327;28;20084;-85
2022/02/09 05:31:30;;;;;;;4.80;3.00;;;;;;;13.82;50.99;102240.25;5038935;28;20053;-85
2022/02/09 05:33:57;;;;;;;4.65;2.85;;;;;;;13.82;51.24;102237.53;5034951;28;20046;-85
2022/02/09 05:36:23;;;;;;;4.43;2.70;;;;;;;13.81;51.21;102232.16;5012058;28;20045;-85
2022/02/09 05:38:50;;;;;;;5.07;2.47;;;;;;;13.80;51.25;102238.56;5011101;28;20405;-85
2022/02/09 05:41:17;;;;;;;5.30;2.67;;;;;;;13.78;51.25;102229.59;5011506;28;20551;-85
2022/02/09 05:43:43;;;;;;;4.85;2.63;;;;;;;13.78;51.10;102232.31;5010245;28;20181;-85
2022/02/09 05:51:33;;;;;;;4.10;2.42;;;;;;;13.76;51.18;102223.31;5011719;28;20052;-85
2022/02/09 05:56:46;;;;;;;4.82;2.58;;;;;;;13.77;51.23;102231.44;4990363;28;20077;-85
2022/02/09 05:59:27;;;;;;;4.53;2.50;;;;;;;13.77;51.09;102222.34;4991231;28;20069;-85
2022/02/09 06:01:56;;;;;;;4.50;2.80;;;;;;;13.78;51.14;102225.00;5009221;28;20049;-84
2022/02/09 06:04:22;;;;;;;4.55;3.05;;;;;;;13.78;51.30;102226.84;5005191;28;20335;-84
2022/02/09 06:06:49;;;;;;;5.25;3.17;;;;;;;13.80;51.42;102233.09;4987504;28;20137;-81
2022/02/09 06:09:16;;;;;;;5.30;3.00;;;;;;;13.80;51.09;102234.00;4991114;28;20139;-82
2022/02/09 06:11:49;;;;;;;4.78;3.03;;;;;;;13.82;51.21;102234.78;5006833;28;20074;-85
2022/02/09 06:19:47;;;;;;;5.82;3.40;;;;;;;13.79;51.00;102229.50;4999236;28;20125;-85
2022/02/09 06:22:14;;;;;;;4.50;3.08;;;;;;;13.79;51.26;102229.50;5007487;28;20073;-83
2022/02/09 06:24:42;;;;;;;5.85;3.33;;;;;;;13.81;51.14;102221.22;5006062;28;20050;-83
2022/02/09 06:27:10;;;;;;;6.35;3.58;;;;;;;13.83;51.18;102227.47;5006879;28;20085;-83
2022/02/09 06:29:39;;;;;;;5.85;3.63;;;;;;;13.81;50.78;102230.31;5000983;28;20057;-83
2022/02/09 06:32:09;;;;;;;6.47;4.03;;;;;;;13.81;50.79;102226.69;5004463;28;20045;-83
2022/02/09 06:34:37;;;;;;;6.88;4.20;;;;;;;13.81;50.80;102230.31;5008566;28;20551;-83
2022/02/09 06:37:19;;;;;;;5.40;3.90;;;;;;;13.81;50.91;102233.03;5008433;28;20129;-83
2022/02/09 06:39:49;;;;;;;7.40;4.18;;;;;;;13.79;50.98;102232.22;5001392;28;20112;-83
2022/02/09 06:42:22;;;;;;;6.03;3.80;;;;;;;13.76;50.86;102237.84;5009198;28;20497;-83
2022/02/09 06:44:49;;;;;;;;;;;;;;;13.53;51.48;102236.47;5008675;28;20100;-83
2022/02/09 06:47:21;;;;;;;6.35;3.92;;;;;;;13.74;51.04;102239.81;5014017;28;19976;-84
2022/02/09 06:49:55;;;;;;;7.22;4.05;;;;;;;13.76;50.83;102247.88;5007997;28;20141;-85
2022/02/09 06:52:22;;;;;;;6.75;3.92;;;;;;;13.76;50.87;102250.63;5003935;28;20108;-85
2022/02/09 06:55:10;;;;;;;6.15;3.97;;;;;;;13.75;50.83;102244.31;5006482;28;20100;-85
2022/02/09 07:00:18;;;;;;;6.28;3.70;;;;;;;13.74;50.82;102244.41;5008050;28;20116;-86
2022/02/09 07:02:46;;;;;;;7.22;4.03;;;;;;;13.73;50.79;102246.25;5006635;28;20132;-84
2022/02/09 07:05:14;;;;;;;6.00;3.63;;;;;;;13.71;50.79;102246.31;5006444;28;20061;-83
2022/02/09 07:07:41;;;;;;;6.60;4.03;;;;;;;13.71;50.92;102245.44;5011770;28;20080;-85
2022/02/09 07:10:10;;;;;;;4.88;3.55;;;;;;;13.71;51.14;102249.06;5006999;28;20123;-84
2022/02/09 07:12:38;;;;;;;5.50;3.65;;;;;;;13.69;51.20;102245.53;5008378;28;20120;-84
2022/02/09 07:15:07;;;;;;;5.53;3.50;;;;;;;13.69;51.07;102248.25;5006133;28;20277;-85
2022/02/09 07:17:34;;;;;;;5.28;3.00;;;;;;;13.71;51.29;102253.63;5007921;28;20050;-84
2022/02/09 07:20:13;;;;;;;6.50;4.10;;;;;;;13.73;51.37;102245.34;5008138;28;20509;-84
2022/02/09 07:22:41;;;;;;;6.07;3.67;;;;;;;13.73;51.25;102248.09;5002217;28;20057;-87
2022/02/09 07:25:17;;;;;;;6.78;3.50;;;;;;;13.73;51.34;102248.97;5007385;28;20907;-85
2022/02/09 07:27:50;;;;;;;7.65;3.67;;;;;;;13.74;51.33;102245.28;5005259;28;20069;-85
2022/02/09 07:30:22;;;;;;;5.65;3.38;;;;;;;13.77;51.11;102249.66;5007496;28;20057;-84
2022/02/09 07:33:00;;;;;;;6.72;3.90;;;;;;;13.81;51.17;102251.25;5008321;28;20441;-84
2022/02/09 07:35:26;;;;;;;5.97;3.42;;;;;;;13.79;51.07;102255.91;5007758;28;20046;-84
2022/02/09 07:37:54;;;;;;;5.70;3.55;;;;;;;13.81;51.06;102251.25;4982239;28;20062;-85
2022/02/09 07:40:21;;;;;;;5.40;3.38;;;;;;;13.81;51.20;102257.59;4979455;28;20429;-85
2022/02/09 07:42:52;;;;;;;5.82;3.45;;;;;;;13.82;51.34;102258.47;4989036;28;20054;-85
2022/02/09 07:45:45;;;;;;;5.32;3.17;;;;;;;13.82;51.46;102262.09;4984125;28;20089;-84
2022/02/09 07:50:46;;;;;;;8.23;3.80;;;;;;;13.83;51.16;102243.88;5000433;28;20106;-87
2022/02/09 07:53:45;;;;;;;5.82;3.95;;;;;;;13.83;50.93;102242.00;5008234;28;20367;-86
2022/02/09 07:56:00;;;;;;;6.90;4.00;;;;;;;13.82;50.92;102240.25;5007137;28;20049;-85
2022/02/09 07:58:26;;;;;;;6.35;3.75;;;;;;;13.83;51.14;102243.88;5006452;28;20046;-84
2022/02/09 08:00:53;;;;;;;5.97;3.65;;;;;;;13.83;50.69;102241.13;4989828;28;20055;-82
2022/02/09 08:03:20;;;;;;;6.70;3.80;;;;;;;13.83;51.19;102238.41;4984066;28;20070;-82
2022/02/09 08:05:46;;;;;;;7.60;3.85;;;;;;;13.85;50.84;102241.91;4982899;28;20137;-83
2022/02/09 08:08:15;;;;;;;6.18;3.88;;;;;;;13.83;50.75;102241.13;4988787;28;20053;-83
2022/02/09 08:10:49;;;;;;;5.40;3.40;;;;;;;13.82;50.97;102237.53;4985870;28;20552;-83
2022/02/09 08:29:58;;;;;;;7.32;3.65;;;;;;;13.74;50.94;102238.94;4991310;28;20073;-86
2022/02/09 08:34:52;;;;;;;6.55;4.00;;;;;;;13.74;50.89;102242.53;5007002;28;20545;-85
2022/02/09 08:37:19;;;;;;;7.18;3.72;;;;;;;13.77;50.87;102241.47;5007665;28;20133;-87
2022/02/09 08:39:47;;;;;;;6.60;3.60;;;;;;;13.77;51.02;102236.88;5012340;28;20049;-84
2022/02/09 08:42:14;;;;;;;5.97;3.38;;;;;;;13.77;50.83;102227.81;5011962;28;20050;-87
2022/02/09 08:44:41;;;;;;;6.45;3.60;;;;;;;13.78;50.96;102224.13;5019071;28;20049;-83
2022/02/09 08:47:08;;;;;;;5.88;3.33;;;;;;;13.78;51.20;102229.59;5012394;28;20045;-88
2022/02/09 08:49:35;;;;;;;5.50;3.13;;;;;;;13.78;51.50;102227.72;5013938;28;20080;-83
2022/02/09 08:52:02;;;;;;;4.93;3.30;;;;;;;13.83;51.45;102233.81;5011445;28;20143;-84
2022/02/09 08:54:29;;;;;;;6.22;3.10;;;;;;;13.86;51.16;102230.00;4984884;28;20054;-83
2022/02/09 08:56:56;;;;;;;5.40;3.30;;;;;;;13.89;51.02;102233.47;5000746;28;20403;-84
2022/02/09 08:59:27;;;;;;;5.10;2.85;;;;;;;13.91;51.19;102230.63;5010259;28;20077;-84
2022/02/09 09:02:03;;;;;;;4.68;2.58;;;;;;;13.93;51.09;102232.28;5010671;28;20058;-84
2022/02/09 09:04:36;;;;;;;4.43;2.53;;;;;;;13.93;50.88;102221.38;5005725;28;20145;-83
2022/02/09 09:07:13;;;;;;;4.68;2.50;;;;;;;13.95;50.82;102226.75;5005610;28;20510;-83
2022/02/09 10:01:38;;;;;;;5.60;3.17;;;;;;;14.04;50.53;102237.13;5010201;28;20050;-82
2022/02/09 10:04:31;;;;;;;4.93;3.15;;;;;;;14.05;50.52;102219.78;5008558;28;20089;-85
2022/02/09 10:33:03;;;;;;;6.90;3.67;;;;;;;14.02;51.04;102233.59;4991387;28;20046;-83
2022/02/09 10:35:42;;;;;;;6.80;3.95;;;;;;;14.02;50.96;102229.00;4996538;28;20086;-83
2022/02/09 10:38:23;;;;;;;5.00;3.33;;;;;;;14.05;51.26;102238.88;4994065;28;20160;-83
2022/02/09 10:40:53;;;;;;;5.95;3.70;;;;;;;14.06;51.00;102237.91;4988047;28;20046;-82
2022/02/09 10:43:34;;;;;;;6.38;3.13;;;;;;;14.09;51.05;102235.00;4987922;28;20081;-83
2022/02/09 10:46:13;;;;;;;6.65;3.90;;;;;;;14.14;51.13;102234.72;4989948;28;20150;-82
2022/02/09 10:48:53;;;;;;;6.45;3.90;;;;;;;14.13;50.85;102239.31;4979868;28;20557;-82
2022/02/09 10:51:26;;;;;;;7.38;3.75;;;;;;;14.09;51.04;102235.88;5004187;28;20049;-82
2022/02/09 10:54:05;;;;;;;7.50;3.95;;;;;;;14.14;50.66;102235.63;5008504;28;20107;-83
2022/02/09 10:56:33;;;;;;;5.63;3.40;;;;;;;14.10;50.90;102234.91;5008382;28;20061;-83
2022/02/09 10:59:03;;;;;;;4.82;3.28;;;;;;;14.11;51.00;102227.59;5010613;28;20137;-83
2022/02/09 11:01:30;;;;;;;6.03;3.80;;;;;;;14.13;51.12;102238.44;5005402;28;20192;-83
2022/02/09 11:03:58;;;;;;;6.20;3.72;;;;;;;14.15;51.10;102236.50;5008541;28;20473;-83
2022/02/09 11:06:28;;;;;;;5.85;3.47;;;;;;;14.16;51.02;102241.88;4994007;28;20141;-82
2022/02/09 11:08:55;;;;;;;7.80;4.28;;;;;;;14.17;51.21;102237.25;5008232;28;20074;-82
2022/02/09 11:11:22;;;;;;;7.25;4.28;;;;;;;14.18;50.71;102233.56;5002903;28;20312;-85
2022/02/09 11:13:50;;;;;;;7.63;4.22;;;;;;;14.18;51.26;102225.38;4986335;28;20414;-83
2022/02/09 11:16:22;;;;;;;7.10;4.43;;;;;;;14.20;51.05;102221.56;5004444;28;20460;-85
2022/02/09 11:18:50;;;;;;;6.65;4.00;;;;;;;14.18;51.28;102222.63;5006487;28;20081;-82
2022/02/09 11:21:26;;;;;;;6.43;4.20;;;;;;;14.24;50.96;102214.97;4989959;28;20541;-82
2022/02/09 11:24:07;;;;;;;7.60;4.50;;;;;;;14.22;51.21;102210.56;4992035;28;20078;-82
2022/02/09 11:27:02;;;;;;;6.57;4.30;;;;;;;14.25;51.24;102207.63;5003068;28;20078;-83
2022/02/09 11:29:49;;;;;;;9.77;3.97;;;;;;;14.20;51.32;102205.19;4980377;28;20062;-82
2022/02/09 11:40:50;;;;;;;8.18;4.50;;;;;;;14.28;51.24;102210.19;4997024;28;20048;-82
2022/02/09 11:43:21;;;;;;;8.15;4.57;;;;;;;14.30;51.01;102202.78;5009706;28;20116;-83
2022/02/09 11:57:33;;;;;;;8.07;4.10;;;;;;;14.32;51.02;102187.19;5009255;28;20157;-83
2022/02/09 12:11:20;;;;;;;7.20;3.70;;;;;;;14.40;50.87;102182.16;5005602;28;20081;-83
2022/02/09 12:16:48;;;;;;;6.78;3.75;;;;;;;14.44;50.90;102172.78;5010376;28;20084;-85
2022/02/09 12:19:29;;;;;;;5.25;3.38;;;;;;;14.45;51.18;102175.44;4978753;28;20060;-82
2022/02/09 12:24:29;;;;;;;6.18;3.40;;;;;;;14.53;50.76;102163.13;5009203;28;20046;-83
2022/02/09 12:27:05;;;;;;;5.25;3.00;;;;;;;14.55;50.67;102162.06;5010154;28;20536;-83
2022/02/09 12:29:36;;;;;;;5.55;3.05;;;;;;;14.57;50.86;102168.34;5007627;28;20046;-83
2022/02/09 12:32:25;;;;;;;5.00;3.28;;;;;;;14.60;50.28;102159.03;5012364;28;20125;-84
2022/02/09 12:34:51;;;;;;;4.82;2.90;;;;;;;14.61;50.73;102161.69;5001446;28;20061;-84
2022/02/09 12:37:18;;;;;;;5.38;3.17;;;;;;;14.64;50.27;102161.50;5012353;28;20147;-84
2022/02/09 12:39:58;;;;;;;6.03;3.58;;;;;;;14.70;50.22;102160.22;5010872;28;20104;-82
2022/02/09 12:42:37;;;;;;;4.93;2.90;;;;;;;14.71;49.92;102153.78;5015418;28;20127;-82
2022/02/09 12:45:07;;;;;;;5.25;2.72;;;;;;;14.71;49.83;102141.00;5012898;28;20045;-83
2022/02/09 12:47:43;;;;;;;5.97;2.85;;;;;;;14.74;49.45;102153.59;5008272;28;20104;-83
2022/02/09 12:50:10;;;;;;;7.13;2.97;;;;;;;14.72;50.02;102156.44;5019408;28;20121;-85
2022/02/09 12:52:40;;;;;;;6.03;3.10;;;;;;;14.76;49.59;102144.31;5033747;28;20100;-84
2022/02/09 12:55:16;;;;;;;6.47;3.22;;;;;;;14.77;49.43;102150.66;5014566;28;20069;-85
2022/02/09 12:57:50;;;;;;;4.20;2.67;;;;;;;14.74;49.73;102140.78;5011035;28;20128;-86
2022/02/09 13:00:29;;;;;;;4.47;2.72;;;;;;;14.77;49.36;102142.44;5011392;28;20081;-84
2022/02/09 13:02:59;;;;;;;5.47;2.60;;;;;;;14.76;49.48;102141.56;5010626;28;20050;-85
2022/02/09 13:05:26;;;;;;;5.32;2.90;;;;;;;14.76;49.76;102127.91;5009221;28;20061;-85
2022/02/09 13:07:56;;;;;;;5.13;2.55;;;;;;;14.78;49.20;102130.53;5010175;28;20137;-87
2022/02/09 13:10:30;;;;;;;5.78;2.60;;;;;;;14.82;49.44;102123.91;5009545;28;20057;-86
2022/02/09 13:13:03;;;;;;;5.53;2.63;;;;;;;14.79;49.25;102119.50;5010295;28;20045;-83
2022/02/09 13:15:34;;;;;;;5.80;2.72;;;;;;;14.80;48.90;102121.28;5011965;28;20859;-87
2022/02/09 14:10:17;;;;;;;4.93;2.55;;;;;;;14.93;48.30;102099.47;5013410;28;20061;-83
2022/02/09 14:18:45;;;;;;;3.88;2.15;;;;;;;14.96;48.41;102091.06;5005279;28;20054;-85
2022/02/09 14:56:12;;;;;;;4.45;2.33;;;;;;;15.10;48.72;102082.81;4993351;28;20117;-85
2022/02/09 14:58:42;;;;;;;4.63;2.10;;;;;;;15.12;48.36;102089.09;4980456;28;20069;-85
2022/02/09 15:01:14;;;;;;;4.32;2.40;;;;;;;15.15;48.58;102085.28;4984481;28;20453;-86
2022/02/09 15:06:39;;;;;;;6.95;2.30;;;;;;;15.19;48.31;102076.75;4970498;28;20071;-84
2022/02/09 15:09:18;;;;;;;4.85;2.22;;;;;;;15.21;47.89;102073.91;4978067;28;20055;-83
2022/02/09 15:22:06;;;;;;;5.43;2.25;;;;;;;15.28;47.94;102057.94;5009247;28;20046;-86
2022/02/09 15:24:40;;;;;;;5.57;1.95;;;;;;;15.29;48.13;102059.72;5006596;28;20104;-83
2022/02/09 15:27:13;;;;;;;3.17;1.80;;;;;;;15.29;47.56;102060.59;5006815;28;20103;-86
2022/02/09 15:29:40;;;;;;;3.45;1.80;;;;;;;15.29;47.77;102062.44;5007985;28;20533;-87
2022/02/09 15:32:24;;;;;;;3.47;1.80;;;;;;;15.31;47.87;102060.50;5008616;28;20048;-85
2022/02/09 15:34:58;;;;;;;4.20;1.95;;;;;;;15.29;47.59;102055.13;5006535;28;20409;-85
2022/02/09 15:37:41;;;;;;;4.07;2.10;;;;;;;15.29;47.80;102055.13;5008268;28;20402;-86
2022/02/09 15:43:08;;;;;;;4.05;2.08;;;;;;;15.29;48.01;102046.91;5009423;28;20074;-85
2022/02/09 15:59:22;;;;;;;3.90;2.05;;;;;;;15.28;47.42;102050.63;5005670;28;20053;-86
2022/02/09 16:19:17;;;;;;;3.70;1.95;;;;;;;15.17;47.39;102031.31;5010118;28;20046;-86
2022/02/09 16:24:08;;;;;;;5.50;2.55;;;;;;;15.14;47.75;102026.94;5010076;28;20069;-88
2022/02/09 16:45:39;;;;;;;11.20;6.28;;;;;;;15.04;47.41;102025.81;5016124;28;20083;-87
2022/02/09 16:48:09;;;;;;;12.63;7.40;;;;;;;15.02;47.45;102027.75;5007869;28;20596;-85
2022/02/09 16:50:39;;;;;;;15.55;9.40;;;;;;;15.03;47.24;102024.03;5004766;28;20465;-86
2022/02/09 16:53:22;;;;;;;17.17;10.20;;;;;;;15.03;47.66;102032.25;5008257;28;20532;-86
2022/02/09 17:20:37;;;;;;;6.20;2.90;;;;;;;14.75;47.38;102038.66;4990920;28;20073;-86
2022/02/09 17:23:04;;;;;;;6.07;3.15;;;;;;;14.74;47.65;102034.16;4996428;28;20050;-86
2022/02/09 17:25:31;;;;;;;4.80;2.95;;;;;;;14.72;47.55;102044.34;4988104;28;20054;-86
2022/02/09 17:27:58;;;;;;;7.60;4.07;;;;;;;14.69;47.33;102050.00;4992010;28;20054;-87
2022/02/09 17:33:29;;;;;;;7.68;4.03;;;;;;;14.63;47.39;102044.06;5012611;28;20053;-88
2022/02/09 17:36:03;;;;;;;6.82;4.43;;;;;;;14.59;47.42;102037.00;5011054;28;20112;-87
2022/02/09 18:00:22;;;;;;;7.38;3.70;;;;;;;14.32;47.45;102026.88;4996860;28;20613;-86
2022/02/09 18:02:52;;;;;;;7.85;3.47;;;;;;;14.27;47.75;102015.34;4991428;28;20073;-85
2022/02/09 18:05:28;;;;;;;6.68;3.45;;;;;;;14.25;47.72;102027.34;4993839;28;20132;-86
2022/02/09 18:08:03;;;;;;;10.05;5.20;;;;;;;14.21;47.80;102014.88;5011418;28;20122;-87
2022/02/09 18:10:51;;;;;;;9.50;5.53;;;;;;;14.20;47.50;102015.84;5000862;28;20589;-87
2022/02/09 18:13:40;;;;;;;8.68;4.90;;;;;;;14.15;47.83;102012.53;4991448;28;20116;-88
2022/02/09 18:30:08;;;;;;;37.95;20.67;;;;;;;13.96;48.03;102016.41;4995493;28;20489;-87
2022/02/09 18:38:12;;;;;;;30.25;17.10;;;;;;;13.87;47.81;102011.53;5013155;28;20053;-86
2022/02/09 18:41:37;;;;;;;18.27;11.75;;;;;;;13.85;47.88;102010.72;5009724;28;20069;-87
2022/02/09 18:43:28;;;;;;;14.27;9.07;;;;;;;13.82;47.77;102002.75;5002012;28;20042;-87
2022/02/09 19:07:19;;;;;;;11.80;7.28;;;;;;;13.62;48.58;102001.25;5011472;28;20080;-88
2022/02/09 19:18:32;;;;;;;10.98;5.90;;;;;;;13.60;48.70;101992.25;4945250;28;20150;-83
2022/02/09 19:31:42;;;;;;;11.13;6.55;;;;;;;13.63;48.78;101985.75;4944248;28;20047;-83
2022/02/09 19:45:41;;;;;;;17.67;10.40;;;;;;;13.65;48.78;101976.50;4946816;28;20097;-79
2022/02/09 19:55:57;;;;;;;22.08;12.77;;;;;;;13.70;48.49;101970.75;4987566;28;20497;-77
2022/02/09 19:58:37;;;;;;;33.80;19.80;;;;;;;13.71;49.11;101970.66;4990028;28;20101;-78
2022/02/09 20:01:04;;;;;;;57.90;32.70;;;;;;;13.72;48.65;101966.06;4982177;28;20480;-80
2022/02/09 20:03:31;;;;;;;42.65;27.77;;;;;;;13.74;49.00;101960.53;4988054;28;20728;-80
2022/02/09 20:05:57;;;;;;;28.25;18.95;;;;;;;13.75;49.05;101957.72;5002571;28;20599;-83
2022/02/09 20:08:24;;;;;;;31.35;19.58;;;;;;;13.76;48.75;101962.16;5009301;28;20496;-86
2022/02/09 20:10:55;;;;;;;25.75;18.48;;;;;;;13.79;48.39;101961.09;5007336;28;20667;-86
2022/02/09 20:13:25;;;;;;;24.98;18.17;;;;;;;13.80;48.83;101954.69;5019756;28;20046;-84
2022/02/09 20:23:36;;;;;;;16.27;9.43;;;;;;;13.76;48.81;101953.09;4974436;28;20057;-74
2022/02/09 20:26:07;;;;;;;10.63;6.72;;;;;;;13.79;48.49;101947.47;4950052;28;20047;-76
2022/02/09 20:28:36;;;;;;;8.75;5.32;;;;;;;13.81;48.57;101950.97;4947213;29;20166;-76
2022/02/09 20:31:08;;;;;;;7.72;4.80;;;;;;;13.80;48.52;101949.22;4961102;28;20059;-76
2022/02/09 20:34:06;;;;;;;7.35;5.13;;;;;;;13.77;48.75;101953.00;4965371;28;20165;-82
2022/02/09 20:36:33;;;;;;;7.82;4.97;;;;;;;13.78;48.64;101949.31;4958321;28;20051;-81
2022/02/09 20:39:04;;;;;;;9.23;5.55;;;;;;;13.78;48.51;101943.84;4962352;28;20047;-82
2022/02/09 20:41:33;;;;;;;6.82;4.60;;;;;;;13.76;48.43;101943.06;4949900;28;20089;-82
2022/02/09 20:44:21;;;;;;;9.40;5.30;;;;;;;13.75;48.35;101941.34;4965552;28;20082;-82
2022/02/09 20:46:48;;;;;;;8.23;4.53;;;;;;;13.74;48.36;101949.63;4967315;28;20060;-82
2022/02/09 20:49:15;;;;;;;7.82;4.57;;;;;;;13.73;48.43;101951.47;4972371;28;20109;-80
2022/02/09 20:51:41;;;;;;;7.20;4.45;;;;;;;13.71;48.52;101940.63;4957876;28;20166;-81
2022/02/09 20:54:08;;;;;;;7.53;4.65;;;;;;;13.70;48.48;101948.91;4976275;28;20475;-81
2022/02/09 20:56:35;;;;;;;7.35;4.82;;;;;;;13.67;48.51;101944.50;4964147;28;20580;-81
2022/02/09 20:59:05;;;;;;;7.05;4.50;;;;;;;13.67;48.54;101943.66;4955542;28;20055;-81
2022/02/09 21:01:49;;;;;;;7.88;4.53;;;;;;;13.65;48.58;101937.41;5007734;28;20153;-81
2022/02/09 21:04:19;;;;;;;7.22;4.70;;;;;;;13.61;48.69;101941.28;5021640;28;20458;-81
2022/02/09 21:12:43;;;;;;;7.20;4.60;;;;;;;13.58;48.71;101936.06;4990708;28;20056;-81
2022/02/09 21:20:44;;;;;;;7.10;4.57;;;;;;;13.56;48.82;101938.88;4994786;28;20074;-83
2022/02/09 21:52:38;;;;;;;7.97;4.38;;;;;;;13.41;48.72;101907.09;5014174;28;20149;-80
2022/02/09 21:55:23;;;;;;;8.60;5.20;;;;;;;13.40;48.75;101907.19;5015373;28;20050;-81
2022/02/09 21:58:09;;;;;;;7.90;5.15;;;;;;;13.39;49.15;101902.69;5009278;28;20058;-81
2022/02/09 22:00:58;;;;;;;9.48;5.50;;;;;;;13.39;48.84;101899.97;5007251;28;20180;-83
2022/02/09 22:27:58;;;;;;;7.88;5.32;;;;;;;13.28;49.02;101870.63;5011934;28;20049;-81
2022/02/09 22:47:39;;;;;;;8.45;5.63;;;;;;;13.22;49.19;101865.53;5009268;28;20092;-81
2022/02/09 22:50:04;;;;;;;9.38;5.28;;;;;;;13.21;49.50;101863.78;5007321;28;20139;-81
2022/02/09 22:55:21;;;;;;;8.63;5.30;;;;;;;13.23;49.29;101853.66;5001800;28;20061;-80
2022/02/09 23:03:21;;;;;;;10.05;6.00;;;;;;;13.21;49.63;101842.84;5001801;28;20049;-81
2022/02/09 23:13:44;;;;;;;9.88;5.60;;;;;;;13.24;49.20;101841.78;5010246;28;20135;-81
2022/02/09 23:16:24;;;;;;;8.90;5.25;;;;;;;13.23;49.45;101838.19;5001751;28;20054;-81
